Time;durP1;ratioP1;P1;durP2;ratioP2;P2;SDS_P1;SDS_P2;PMS_P1;PMS_P2;Temp;Humidity;BMP_temperature;BMP_pressure;BME280_temperature;BME280_humidity;BME280_pressure;Samples;Min_cycle;Max_cycle;Signal;HPM_P1;HPM_P2
2023/04/30 00:02:07;;;;;;;15.25;4.65;;;;;;;3.29;100.00;101256.16;5016180;28;20029;-69
2023/04/30 00:04:32;;;;;;;;;;;;;;;3.24;100.00;101271.47;5001492;28;20073;-69
2023/04/30 00:06:58;;;;;;;11.95;3.53;;;;;;;3.15;100.00;101269.44;5031380;28;19968;-70
2023/04/30 00:09:23;;;;;;;11.80;3.53;;;;;;;3.34;100.00;101309.50;5022537;28;20116;-71
2023/04/30 00:11:48;;;;;;;17.30;4.50;;;;;;;3.37;100.00;101258.28;5030348;28;20141;-69
2023/04/30 00:14:14;;;;;;;15.87;4.00;;;;;;;3.30;100.00;101247.31;5017247;28;20026;-70
2023/04/30 00:16:40;;;;;;;14.30;3.97;;;;;;;3.31;100.00;101279.84;4996693;28;20529;-74
2023/04/30 00:19:05;;;;;;;12.27;3.70;;;;;;;3.24;100.00;101282.03;5017190;28;20120;-73
2023/04/30 00:21:31;;;;;;;25.13;3.83;;;;;;;3.11;100.00;101281.13;5014737;28;20049;-69
2023/04/30 00:23:59;;;;;;;19.45;4.68;;;;;;;3.03;100.00;101309.84;5000776;28;20073;-68
2023/04/30 00:26:24;;;;;;;11.98;4.95;;;;;;;2.92;100.00;101334.25;5022323;28;20033;-70
2023/04/30 00:28:50;;;;;;;15.65;5.03;;;;;;;2.85;100.00;101386.53;5030159;28;20402;-74
2023/04/30 00:31:15;;;;;;;15.90;4.63;;;;;;;2.82;100.00;101407.84;5006809;28;20037;-72
2023/04/30 00:33:40;;;;;;;14.48;4.25;;;;;;;2.89;100.00;101442.59;5012732;28;20018;-69
2023/04/30 00:36:06;;;;;;;12.87;4.03;;;;;;;2.84;100.00;101450.78;5015840;28;20124;-74
2023/04/30 00:38:31;;;;;;;18.87;5.10;;;;;;;2.89;100.00;101466.34;5013818;28;20183;-69
2023/04/30 00:40:57;;;;;;;13.70;4.10;;;;;;;2.82;100.00;101460.59;4998151;28;20033;-69
2023/04/30 00:43:22;;;;;;;14.20;3.85;;;;;;;2.75;100.00;101470.66;5021603;28;20030;-71
2023/04/30 00:45:48;;;;;;;16.13;4.00;;;;;;;2.66;100.00;101481.78;5013321;28;20459;-69
2023/04/30 00:48:14;;;;;;;13.40;4.20;;;;;;;2.70;100.00;101485.94;5006343;28;20288;-69
2023/04/30 00:50:41;;;;;;;22.50;3.92;;;;;;;2.63;100.00;101489.03;4996792;28;20034;-75
2023/04/30 00:53:07;;;;;;;8.52;3.90;;;;;;;2.53;100.00;101489.59;4999406;28;20038;-70
2023/04/30 00:55:32;;;;;;;15.90;4.23;;;;;;;2.55;100.00;101510.56;5013842;28;20025;-73
2023/04/30 00:57:59;;;;;;;20.27;5.00;;;;;;;2.55;100.00;101529.03;5016783;28;20312;-70
2023/04/30 01:00:26;;;;;;;13.52;4.45;;;;;;;2.57;100.00;101521.88;5008963;28;20033;-74
2023/04/30 01:02:52;;;;;;;11.70;4.10;;;;;;;2.57;100.00;101519.25;5017332;28;20080;-68
2023/04/30 01:05:17;;;;;;;21.58;5.40;;;;;;;2.49;100.00;101503.88;5020698;28;20026;-69
2023/04/30 01:07:45;;;;;;;16.90;4.23;;;;;;;2.44;100.00;101508.59;5016333;28;20476;-70
2023/04/30 01:10:13;;;;;;;17.27;4.80;;;;;;;2.36;100.00;101526.63;5020815;28;20056;-73
2023/04/30 01:12:42;;;;;;;12.05;4.47;;;;;;;2.42;100.00;101541.25;5016220;28;20061;-70
2023/04/30 01:15:25;;;;;;;12.68;4.93;;;;;;;2.51;100.00;101553.88;5021203;28;20076;-71
2023/04/30 01:18:11;;;;;;;21.45;6.30;;;;;;;2.56;100.00;101545.72;5022280;28;20109;-70
2023/04/30 01:20:42;;;;;;;14.43;4.85;;;;;;;2.47;100.00;101513.66;5021380;28;20140;-69
2023/04/30 01:23:41;;;;;;;22.67;5.43;;;;;;;2.41;100.00;101524.59;5018967;28;20055;-70
2023/04/30 01:26:14;;;;;;;14.82;3.90;;;;;;;2.29;100.00;101525.28;5023397;28;20062;-70
2023/04/30 01:28:43;;;;;;;12.07;4.78;;;;;;;2.23;100.00;101536.22;5016021;28;20470;-70
2023/04/30 01:31:17;;;;;;;16.10;5.10;;;;;;;2.17;100.00;101553.22;5022820;28;20026;-70
2023/04/30 01:33:43;;;;;;;23.48;5.40;;;;;;;2.24;100.00;101578.25;5032097;28;20025;-71
2023/04/30 01:36:39;;;;;;;14.02;5.95;;;;;;;2.19;100.00;101566.31;5009681;28;20151;-70
2023/04/30 01:39:10;;;;;;;19.35;5.03;;;;;;;2.17;100.00;101568.19;5018494;28;20037;-70
2023/04/30 01:41:49;;;;;;;17.90;5.30;;;;;;;2.24;100.00;101580.91;5000061;28;20088;-70
2023/04/30 01:44:44;;;;;;;19.70;7.30;;;;;;;2.25;100.00;101585.25;5020042;28;20405;-70
2023/04/30 01:47:22;;;;;;;16.05;5.78;;;;;;;2.18;100.00;101569.84;4946087;28;20042;-71
2023/04/30 01:50:16;;;;;;;19.13;5.93;;;;;;;2.11;100.00;101554.41;5015783;28;20091;-70
2023/04/30 01:52:49;;;;;;;15.30;5.35;;;;;;;2.05;100.00;101567.09;5015067;28;20032;-70
2023/04/30 01:55:29;;;;;;;15.80;5.30;;;;;;;2.07;100.00;101579.25;5018948;28;20052;-70
2023/04/30 01:57:59;;;;;;;14.35;5.65;;;;;;;2.15;100.00;101602.50;5032762;28;20029;-70
2023/04/30 02:00:27;;;;;;;15.70;5.28;;;;;;;2.16;100.00;101598.09;5022070;28;20029;-70
2023/04/30 02:02:54;;;;;;;10.35;4.63;;;;;;;2.14;100.00;101592.06;5016541;28;20097;-70
2023/04/30 02:05:20;;;;;;;15.63;5.03;;;;;;;2.15;100.00;101586.69;5019594;28;20147;-70
2023/04/30 02:07:48;;;;;;;18.17;5.03;;;;;;;2.03;100.00;101566.31;5016833;28;20108;-70
2023/04/30 02:10:16;;;;;;;15.63;5.53;;;;;;;1.96;100.00;101565.81;5025304;28;20048;-70
2023/04/30 02:12:41;;;;;;;10.10;3.92;;;;;;;1.86;100.00;101562.03;5014923;28;20022;-70
2023/04/30 02:15:07;;;;;;;13.30;5.70;;;;;;;1.87;100.00;101588.28;5017987;28;20037;-71
2023/04/30 02:17:33;;;;;;;16.58;5.15;;;;;;;1.84;100.00;101587.59;4999708;28;20284;-70
2023/04/30 02:19:59;;;;;;;12.65;5.57;;;;;;;1.92;100.00;101611.72;5017016;28;20398;-70
2023/04/30 02:22:25;;;;;;;17.90;3.95;;;;;;;1.94;100.00;101619.50;5007614;28;20037;-70
2023/04/30 02:24:52;;;;;;;14.98;5.53;;;;;;;1.93;100.00;101618.69;5015421;28;20095;-70
2023/04/30 02:27:18;;;;;;;15.43;4.65;;;;;;;1.93;100.00;101613.41;5008458;28;20561;-70
2023/04/30 02:29:44;;;;;;;20.83;5.82;;;;;;;1.83;100.00;101601.69;5031386;28;20359;-70
2023/04/30 02:32:09;;;;;;;14.23;5.70;;;;;;;1.79;100.00;101614.16;5019887;28;20036;-70
2023/04/30 02:34:35;;;;;;;15.43;4.78;;;;;;;1.72;100.00;101604.91;4999141;28;20120;-71
2023/04/30 02:37:02;;;;;;;17.05;6.18;;;;;;;1.65;100.00;101606.19;5018806;28;20684;-70
2023/04/30 02:39:27;;;;;;;13.82;5.22;;;;;;;1.79;100.00;101642.28;5016378;28;20040;-70
2023/04/30 02:41:53;;;;;;;17.93;5.53;;;;;;;1.73;100.00;101637.34;5017522;28;20037;-70
2023/04/30 02:44:18;;;;;;;18.23;6.97;;;;;;;1.82;100.00;101637.69;5018622;28;20299;-70
2023/04/30 02:46:43;;;;;;;15.18;4.63;;;;;;;1.78;100.00;101624.78;5021462;28;20262;-70
2023/04/30 02:49:09;;;;;;;15.87;5.27;;;;;;;1.79;100.00;101626.50;5017856;28;20033;-70
2023/04/30 02:51:34;;;;;;;15.53;4.77;;;;;;;1.85;100.00;101626.13;5015402;28;20280;-71
2023/04/30 02:53:59;;;;;;;13.07;4.37;;;;;;;1.90;100.00;101629.38;5016036;28;20037;-70
2023/04/30 02:56:25;;;;;;;10.37;4.53;;;;;;;1.83;100.00;101612.22;5023385;28;20041;-70
2023/04/30 02:58:50;;;;;;;21.95;5.43;;;;;;;1.85;100.00;101616.47;4998786;28;20040;-71
2023/04/30 03:01:16;;;;;;;16.23;5.47;;;;;;;1.82;100.00;101613.16;5018773;28;20021;-70
2023/04/30 03:03:41;;;;;;;16.17;6.10;;;;;;;1.81;100.00;101600.94;5013859;28;20383;-70
2023/04/30 03:06:06;;;;;;;11.93;4.67;;;;;;;1.78;100.00;101594.06;5017253;28;20554;-70
2023/04/30 03:08:32;;;;;;;16.03;5.63;;;;;;;1.80;100.00;101592.19;4998408;28;20283;-70
2023/04/30 03:10:57;;;;;;;14.63;5.38;;;;;;;1.85;100.00;101599.81;5032577;28;20358;-70
2023/04/30 03:13:26;;;;;;;14.32;5.53;;;;;;;1.93;100.00;101596.75;5023241;28;20021;-71
2023/04/30 03:16:03;;;;;;;21.35;6.15;;;;;;;1.94;100.00;101582.66;5015070;28;20041;-70
2023/04/30 03:18:29;;;;;;;17.40;7.00;;;;;;;1.92;100.00;101568.72;5016929;28;20043;-70
2023/04/30 03:20:54;;;;;;;14.52;5.70;;;;;;;1.92;100.00;101574.84;5016242;28;20481;-70
2023/04/30 03:23:20;;;;;;;15.45;4.90;;;;;;;1.79;100.00;101558.88;5006699;28;20034;-71
2023/04/30 03:25:46;;;;;;;22.50;5.80;;;;;;;1.73;100.00;101559.22;5015421;28;20180;-70
2023/04/30 03:28:11;;;;;;;17.52;5.95;;;;;;;1.61;100.00;101559.91;5023855;28;20449;-70
2023/04/30 03:30:37;;;;;;;11.67;5.40;;;;;;;1.54;100.00;101567.28;5014496;28;20040;-70
2023/04/30 03:33:05;;;;;;;22.13;5.43;;;;;;;1.60;100.00;101590.63;5032706;28;20029;-70
2023/04/30 03:35:31;;;;;;;16.88;6.15;;;;;;;1.62;100.00;101606.38;5016616;28;20030;-70
2023/04/30 03:37:56;;;;;;;14.45;4.45;;;;;;;1.69;100.00;101613.00;5016737;28;20472;-71
2023/04/30 03:40:22;;;;;;;32.35;6.40;;;;;;;1.72;100.00;101619.88;5023041;28;20025;-71
2023/04/30 03:42:47;;;;;;;31.10;7.30;;;;;;;1.62;100.00;101609.84;5015369;28;20026;-70
2023/04/30 03:45:12;;;;;;;13.03;5.00;;;;;;;1.61;100.00;101618.66;5018601;28;20629;-70
2023/04/30 03:47:38;;;;;;;22.55;6.40;;;;;;;1.59;100.00;101615.28;4997505;28;20060;-70
2023/04/30 03:50:03;;;;;;;18.38;5.32;;;;;;;1.49;100.00;101614.06;5016079;28;20104;-70
2023/04/30 03:52:30;;;;;;;14.27;4.90;;;;;;;1.48;100.00;101617.63;5014607;28;20569;-70
2023/04/30 03:54:56;;;;;;;16.38;5.68;;;;;;;1.55;100.00;101634.78;5031389;28;20034;-70
2023/04/30 03:57:21;;;;;;;13.38;4.95;;;;;;;1.57;100.00;101632.06;5022868;28;20029;-70
2023/04/30 03:59:47;;;;;;;21.40;6.40;;;;;;;1.56;100.00;101633.00;5015138;28;20053;-70
2023/04/30 04:02:13;;;;;;;13.27;5.50;;;;;;;1.51;100.00;101628.00;5017710;28;20060;-70
2023/04/30 04:04:38;;;;;;;23.40;6.97;;;;;;;1.55;100.00;101631.31;5013453;28;20030;-70
2023/04/30 04:07:06;;;;;;;15.48;5.95;;;;;;;1.64;100.00;101644.81;5016110;28;20565;-70
2023/04/30 04:09:34;;;;;;;18.58;5.50;;;;;;;1.63;100.00;101650.16;5013953;28;20091;-70
2023/04/30 04:12:00;;;;;;;12.50;4.75;;;;;;;1.59;100.00;101638.97;5017958;28;20537;-70
2023/04/30 04:14:26;;;;;;;30.08;6.65;;;;;;;1.69;100.00;101647.22;5022566;28;20129;-70
2023/04/30 04:16:51;;;;;;;23.70;5.00;;;;;;;1.81;100.00;101664.97;4998384;28;20104;-70
2023/04/30 04:19:16;;;;;;;13.75;5.07;;;;;;;1.78;100.00;101646.72;5023868;28;20036;-70
2023/04/30 04:21:43;;;;;;;13.68;4.97;;;;;;;1.80;100.00;101646.59;5023759;28;20588;-70
2023/04/30 04:24:13;;;;;;;13.43;4.72;;;;;;;1.93;100.00;101665.25;5023305;28;20050;-70
2023/04/30 04:26:38;;;;;;;15.32;4.80;;;;;;;1.90;100.00;101643.41;5013351;28;20483;-69
2023/04/30 04:29:04;;;;;;;14.40;5.45;;;;;;;1.87;100.00;101643.59;4998989;28;20049;-70
2023/04/30 04:31:30;;;;;;;16.45;4.22;;;;;;;1.95;100.00;101658.94;5015433;28;20045;-70
2023/04/30 04:33:59;;;;;;;;;;;;;;;1.96;100.00;101657.16;5020165;28;20494;-70
2023/04/30 04:36:26;;;;;;;12.05;6.05;;;;;;;2.01;100.00;101669.13;5020717;28;19999;-70
2023/04/30 04:38:52;;;;;;;13.88;5.75;;;;;;;2.07;100.00;101676.69;5034065;28;20034;-70
2023/04/30 04:41:18;;;;;;;15.30;5.50;;;;;;;2.13;100.00;101672.03;5027050;28;20087;-70
2023/04/30 04:43:43;;;;;;;13.35;4.32;;;;;;;2.19;100.00;101674.31;5033253;28;20112;-70
2023/04/30 04:46:10;;;;;;;9.27;4.72;;;;;;;2.23;100.00;101671.44;5027050;28;20037;-70
2023/04/30 04:48:35;;;;;;;17.25;4.90;;;;;;;2.42;100.00;101688.84;5001106;28;20052;-70
2023/04/30 04:51:00;;;;;;;17.57;5.53;;;;;;;2.71;100.00;101705.63;5036106;28;20052;-70
2023/04/30 04:53:26;;;;;;;16.40;4.60;;;;;;;3.16;100.00;101732.91;5019473;28;20275;-70
2023/04/30 04:55:51;;;;;;;16.83;4.93;;;;;;;3.48;100.00;101691.38;5023542;28;20029;-70
2023/04/30 04:58:16;;;;;;;16.00;6.50;;;;;;;3.28;100.00;101592.31;5024919;28;20025;-70
2023/04/30 05:00:44;;;;;;;19.60;5.45;;;;;;;3.37;100.00;101533.66;5023405;28;20032;-70
2023/04/30 05:03:09;;;;;;;12.15;4.65;;;;;;;3.88;100.00;101577.13;5020873;28;20462;-70
2023/04/30 05:05:35;;;;;;;14.20;5.13;;;;;;;4.34;100.00;101532.66;5017062;28;20505;-70
2023/04/30 05:08:01;;;;;;;12.02;5.75;;;;;;;5.03;100.00;101459.13;5035229;28;20084;-70
2023/04/30 05:10:26;;;;;;;14.07;5.17;;;;;;;5.88;100.00;101358.41;5025158;28;20040;-71
2023/04/30 05:12:51;;;;;;;17.83;4.77;;;;;;;6.66;100.00;101217.97;5033415;28;20030;-70
2023/04/30 05:15:17;;;;;;;13.50;3.50;;;;;;;7.44;100.00;100971.50;5021077;28;20033;-70
2023/04/30 05:17:42;;;;;;;12.13;4.23;;;;;;;8.33;100.00;100783.34;5024840;28;20124;-71
2023/04/30 05:20:08;;;;;;;10.10;3.77;;;;;;;8.56;100.00;100349.28;5024848;28;20025;-71
2023/04/30 05:22:33;;;;;;;13.32;4.45;;;;;;;8.65;100.00;100087.53;5018693;28;20028;-70
2023/04/30 05:24:59;;;;;;;13.50;3.47;;;;;;;9.02;100.00;100001.81;5007809;28;20878;-71
2023/04/30 05:27:25;;;;;;;13.50;4.00;;;;;;;9.50;100.00;99849.91;5024551;28;20076;-71
2023/04/30 05:29:51;;;;;;;14.40;3.17;;;;;;;8.75;97.08;99542.63;5023854;28;20036;-71
2023/04/30 05:32:16;;;;;;;14.27;3.13;;;;;;;9.57;96.22;99759.44;5026450;28;20025;-71
2023/04/30 05:34:41;;;;;;;14.43;4.63;;;;;;;9.78;93.39;99625.47;5016007;28;20443;-71
2023/04/30 05:37:07;;;;;;;11.87;5.03;;;;;;;10.17;89.40;99499.78;5019514;28;20029;-70
2023/04/30 05:39:32;;;;;;;8.47;3.37;;;;;;;10.51;86.93;99427.06;5018506;28;20589;-70
2023/04/30 05:41:57;;;;;;;12.67;3.70;;;;;;;11.16;84.81;99434.84;5017991;28;20693;-71
2023/04/30 05:44:23;;;;;;;12.00;3.90;;;;;;;10.79;81.12;99081.81;5023943;28;20061;-70
2023/04/30 05:46:48;;;;;;;11.37;3.63;;;;;;;11.61;80.82;99377.25;5017836;28;20184;-71
2023/04/30 05:49:14;;;;;;;10.43;3.63;;;;;;;11.25;77.57;99050.81;5025454;28;20041;-71
2023/04/30 05:51:39;;;;;;;4.83;2.67;;;;;;;11.45;77.20;99145.13;5017387;28;20030;-70
2023/04/30 05:54:04;;;;;;;17.20;3.20;;;;;;;11.21;74.25;98836.69;5023032;28;20125;-70
2023/04/30 05:56:30;;;;;;;10.73;3.73;;;;;;;10.59;74.46;98824.81;5018583;28;20037;-71
2023/04/30 05:58:55;;;;;;;11.50;3.40;;;;;;;10.91;74.36;99036.66;5018560;28;20147;-71
2023/04/30 06:01:22;;;;;;;18.67;3.17;;;;;;;10.75;74.01;99043.25;5020336;28;20478;-70
2023/04/30 06:03:47;;;;;;;;;;;;;;;10.76;72.25;98893.53;5018597;28;20044;-71
2023/04/30 06:06:12;;;;;;;8.85;3.00;;;;;;;11.46;71.77;99103.19;5027082;28;20325;-70
2023/04/30 06:08:40;;;;;;;6.27;2.80;;;;;;;11.26;69.30;98782.63;5020191;28;20565;-70
2023/04/30 06:11:06;;;;;;;9.13;3.05;;;;;;;11.05;69.83;98885.25;5018884;28;20040;-72
2023/04/30 06:13:32;;;;;;;10.18;3.35;;;;;;;11.29;70.12;99031.47;5016812;28;20025;-72
2023/04/30 06:15:57;;;;;;;10.83;3.37;;;;;;;11.89;67.81;98910.16;5021176;28;20038;-71
2023/04/30 06:18:22;;;;;;;10.10;3.03;;;;;;;11.47;67.90;98837.59;5019036;28;20029;-71
2023/04/30 06:20:48;;;;;;;10.83;3.83;;;;;;;10.86;66.10;98462.50;5017518;28;20037;-72
2023/04/30 06:23:13;;;;;;;12.48;3.17;;;;;;;11.48;66.03;98824.03;5019856;28;20037;-71
2023/04/30 06:25:38;;;;;;;11.40;3.13;;;;;;;11.47;66.08;98757.41;5016938;28;20861;-71
2023/04/30 06:28:04;;;;;;;8.17;2.53;;;;;;;11.16;65.78;98791.13;5019196;28;20414;-72
2023/04/30 06:30:30;;;;;;;9.25;3.80;;;;;;;11.19;66.36;98900.19;5018619;28;20422;-71
2023/04/30 06:32:56;;;;;;;11.85;2.65;;;;;;;11.91;64.63;98929.47;5018118;28;20026;-72
2023/04/30 06:35:21;;;;;;;7.93;3.23;;;;;;;11.73;63.52;98719.81;5018815;28;20055;-72
2023/04/30 06:37:47;;;;;;;7.17;2.70;;;;;;;11.81;63.20;98708.00;5032066;28;20068;-72
2023/04/30 06:40:12;;;;;;;9.80;3.33;;;;;;;10.86;62.91;98446.50;5019509;28;20056;-72
2023/04/30 06:42:38;;;;;;;9.97;3.30;;;;;;;11.01;64.79;98884.88;5016528;28;20061;-71
2023/04/30 06:45:05;;;;;;;9.57;3.00;;;;;;;11.35;64.54;98946.97;5018797;28;20032;-72
2023/04/30 06:47:35;;;;;;;8.25;3.20;;;;;;;11.72;64.00;99033.59;5016153;28;20114;-72
2023/04/30 06:50:01;;;;;;;12.05;2.80;;;;;;;10.17;62.53;98299.78;5018301;28;20042;-72
2023/04/30 06:52:27;;;;;;;10.13;2.97;;;;;;;11.68;63.81;99166.03;5021908;28;20041;-72
2023/04/30 06:54:52;;;;;;;11.45;2.53;;;;;;;12.44;61.96;99028.13;5015452;28;20380;-72
2023/04/30 06:57:17;;;;;;;7.90;2.90;;;;;;;11.35;61.34;98626.38;5019577;28;20025;-72
2023/04/30 06:59:43;;;;;;;9.67;2.50;;;;;;;11.32;63.00;98942.88;4997902;28;20041;-72
2023/04/30 07:02:08;;;;;;;6.70;2.37;;;;;;;12.65;61.46;99152.78;5022839;28;20029;-72
2023/04/30 07:04:34;;;;;;;12.77;2.72;;;;;;;11.66;59.54;98483.84;5015527;28;20868;-71
2023/04/30 07:07:00;;;;;;;5.23;2.93;;;;;;;11.27;59.94;98467.22;5033341;28;20507;-69
2023/04/30 07:09:29;;;;;;;4.55;2.30;;;;;;;11.81;60.62;98892.47;5016735;28;20025;-70
2023/04/30 07:11:56;;;;;;;10.57;2.78;;;;;;;12.13;59.75;98817.63;5017865;28;20030;-69
2023/04/30 07:14:21;;;;;;;5.82;2.33;;;;;;;11.42;58.99;98469.50;5018056;28;20176;-72
2023/04/30 07:16:49;;;;;;;6.83;2.30;;;;;;;10.63;60.34;98463.13;4998606;28;20152;-72
2023/04/30 07:19:15;;;;;;;4.55;2.10;;;;;;;10.94;60.84;98751.38;5024024;28;20466;-70
2023/04/30 07:21:40;;;;;;;9.00;2.63;;;;;;;10.92;60.73;98734.75;5018652;28;20117;-72
2023/04/30 07:24:05;;;;;;;7.10;2.30;;;;;;;9.62;60.90;98313.75;5031377;28;20095;-72
2023/04/30 07:26:31;;;;;;;7.43;2.30;;;;;;;9.33;61.97;98501.56;5017830;28;20037;-71
2023/04/30 07:28:56;;;;;;;7.67;2.33;;;;;;;9.23;63.11;98744.28;5017024;28;20026;-69
2023/04/30 07:31:21;;;;;;;5.87;2.37;;;;;;;9.73;63.55;99003.19;5023750;28;20893;-72
2023/04/30 07:33:49;;;;;;;7.73;2.90;;;;;;;10.44;63.03;99201.22;5000837;28;20025;-72
2023/04/30 07:36:15;;;;;;;11.05;2.75;;;;;;;11.24;61.98;99311.78;5018620;28;20140;-69
2023/04/30 07:38:41;;;;;;;8.60;3.03;;;;;;;11.73;61.24;99269.69;5013948;28;20506;-72
2023/04/30 07:41:07;;;;;;;6.37;1.93;;;;;;;12.60;60.18;99423.81;5033410;28;20033;-72
2023/04/30 07:43:32;;;;;;;4.30;2.25;;;;;;;11.18;58.21;98513.97;5019310;28;20037;-72
2023/04/30 07:45:58;;;;;;;5.37;2.53;;;;;;;11.33;58.95;98743.31;5024061;28;20368;-73
2023/04/30 07:48:23;;;;;;;8.20;1.63;;;;;;;10.57;59.44;98540.34;5017288;28;20061;-72
2023/04/30 07:50:49;;;;;;;4.30;2.27;;;;;;;10.37;60.95;98843.72;5016979;28;20073;-72
2023/04/30 07:53:14;;;;;;;8.45;2.30;;;;;;;11.47;60.78;99225.06;5023738;28;20037;-69
2023/04/30 07:55:40;;;;;;;6.30;1.80;;;;;;;11.88;58.24;98951.31;5013843;28;20037;-70
2023/04/30 07:58:05;;;;;;;8.80;2.40;;;;;;;12.38;58.04;99059.22;5016346;28;20029;-70
2023/04/30 08:00:31;;;;;;;8.57;2.13;;;;;;;12.81;58.27;99304.09;5016087;28;20034;-72
2023/04/30 08:02:57;;;;;;;12.43;2.33;;;;;;;12.89;57.91;99220.81;5016523;28;20181;-73
2023/04/30 08:05:23;;;;;;;6.60;2.28;;;;;;;12.96;56.35;98926.94;5017092;28;20518;-72
2023/04/30 08:07:48;;;;;;;5.10;2.75;;;;;;;12.66;56.88;98911.56;5016679;28;20056;-73
2023/04/30 08:10:14;;;;;;;5.13;2.40;;;;;;;13.02;54.76;98689.53;5017958;28;20473;-71
2023/04/30 08:12:39;;;;;;;7.50;2.57;;;;;;;13.25;54.66;98774.50;5015475;28;20059;-70
2023/04/30 08:15:06;;;;;;;3.87;1.77;;;;;;;11.95;54.49;98230.09;5016022;28;20068;-69
2023/04/30 08:17:33;;;;;;;8.40;3.63;;;;;;;11.22;56.22;98330.88;4998405;28;20040;-73
2023/04/30 08:19:59;;;;;;;10.43;2.67;;;;;;;10.48;57.50;98360.22;5016377;28;20049;-71
2023/04/30 08:22:24;;;;;;;;;;;;;;;9.98;58.88;98471.38;5017333;28;20029;-70
2023/04/30 08:24:50;;;;;;;6.18;2.50;;;;;;;9.94;59.20;98610.38;5030491;28;19967;-71
2023/04/30 08:27:15;;;;;;;9.00;2.33;;;;;;;11.18;58.01;98946.63;5017848;28;20478;-71
2023/04/30 08:29:41;;;;;;;8.35;2.80;;;;;;;12.59;57.41;99346.38;5020124;28;20041;-72
2023/04/30 08:32:07;;;;;;;7.47;2.20;;;;;;;11.37;55.35;98349.97;5016453;28;20037;-73
2023/04/30 08:34:33;;;;;;;9.63;2.03;;;;;;;12.66;55.57;98965.13;5000780;28;20110;-72
2023/04/30 08:36:59;;;;;;;5.50;2.03;;;;;;;11.62;54.92;98397.94;4998861;28;20144;-72
2023/04/30 08:39:24;;;;;;;14.13;2.43;;;;;;;10.99;56.00;98404.44;5016298;28;20125;-70
2023/04/30 08:41:55;;;;;;;8.67;2.30;;;;;;;11.22;54.42;98272.09;5013174;28;20085;-71
2023/04/30 08:44:25;;;;;;;4.53;2.08;;;;;;;11.77;54.92;98642.63;5017130;28;20041;-73
2023/04/30 08:46:53;;;;;;;6.20;2.15;;;;;;;11.57;54.16;98397.00;5015671;28;20029;-72
2023/04/30 08:49:20;;;;;;;8.52;2.55;;;;;;;12.74;53.00;98666.84;5016250;28;20028;-72
2023/04/30 08:51:46;;;;;;;7.13;2.03;;;;;;;12.88;53.09;98777.28;5014732;28;20061;-73
2023/04/30 08:54:12;;;;;;;5.47;2.35;;;;;;;12.57;52.42;98499.88;5022852;28;20026;-73
2023/04/30 08:56:39;;;;;;;7.03;2.30;;;;;;;13.93;51.71;98864.50;5013604;28;20042;-72
2023/04/30 08:59:05;;;;;;;3.88;2.10;;;;;;;14.04;50.02;98503.34;5017195;28;20667;-72
2023/04/30 09:01:30;;;;;;;9.30;2.80;;;;;;;14.66;49.11;98559.81;5014783;28;20028;-73
2023/04/30 09:03:56;;;;;;;9.80;2.60;;;;;;;14.56;48.96;98492.47;4999620;28;20384;-72
2023/04/30 09:06:22;;;;;;;7.53;2.92;;;;;;;14.57;48.66;98384.03;5016929;28;20398;-73
2023/04/30 09:08:48;;;;;;;4.77;2.10;;;;;;;13.73;47.86;97955.75;5014874;28;20388;-72
2023/04/30 09:11:25;;;;;;;4.13;2.55;;;;;;;13.61;49.23;98231.22;5017380;28;20517;-72
2023/04/30 09:13:53;;;;;;;6.63;2.17;;;;;;;13.61;49.17;98261.50;5030102;28;20125;-73
2023/04/30 09:16:22;;;;;;;4.40;2.30;;;;;;;13.99;49.52;98447.72;5017451;28;20709;-73
2023/04/30 09:18:48;;;;;;;5.65;1.85;;;;;;;13.96;49.14;98442.84;5016503;28;20364;-72
2023/04/30 09:21:13;;;;;;;8.88;2.42;;;;;;;13.87;48.12;98195.66;5026165;28;20037;-72
2023/04/30 09:23:55;;;;;;;6.53;2.67;;;;;;;14.66;49.27;98726.31;5017764;28;20037;-70
2023/04/30 09:26:26;;;;;;;5.53;2.15;;;;;;;15.23;49.34;98937.03;5036308;28;20395;-73
2023/04/30 09:28:59;;;;;;;10.57;2.58;;;;;;;15.60;48.88;99018.22;5018428;28;20040;-73
2023/04/30 09:31:25;;;;;;;7.35;2.92;;;;;;;15.15;47.61;98552.00;5019992;28;20045;-70
2023/04/30 09:33:52;;;;;;;10.63;2.65;;;;;;;16.02;47.80;98953.41;5019956;28;20021;-72
2023/04/30 09:36:18;;;;;;;8.00;2.35;;;;;;;15.16;45.78;98193.47;5020931;28;20500;-74
2023/04/30 09:38:44;;;;;;;9.30;2.67;;;;;;;15.79;45.20;98379.38;5017410;28;20017;-73
2023/04/30 09:41:27;;;;;;;8.43;2.40;;;;;;;16.15;45.84;98599.63;5026630;28;20037;-73
2023/04/30 09:43:54;;;;;;;10.35;3.00;;;;;;;15.87;44.52;98240.88;5019012;28;20037;-71
2023/04/30 09:46:21;;;;;;;3.80;2.60;;;;;;;14.18;45.80;97764.13;5009163;28;20080;-70
2023/04/30 09:48:54;;;;;;;11.15;3.55;;;;;;;14.77;46.93;98310.97;5017642;28;20397;-73
2023/04/30 09:51:20;;;;;;;6.95;2.30;;;;;;;15.01;46.97;98499.66;5020488;28;20025;-71
2023/04/30 09:53:46;;;;;;;4.13;2.40;;;;;;;14.27;46.00;97957.66;5016113;28;20475;-73
2023/04/30 09:56:13;;;;;;;;;;;;;;;14.24;47.33;98245.28;5019761;28;20074;-73
2023/04/30 09:58:45;;;;;;;8.57;2.50;;;;;;;15.20;45.67;98317.44;5016272;28;19925;-69
2023/04/30 10:01:11;;;;;;;3.95;2.42;;;;;;;15.93;44.58;98465.88;5000720;28;20029;-73
2023/04/30 10:03:41;;;;;;;7.65;2.90;;;;;;;15.11;44.29;97951.59;5016351;28;20045;-73
2023/04/30 10:06:07;;;;;;;9.68;2.58;;;;;;;15.80;45.41;98574.72;5035492;28;20045;-72
2023/04/30 10:08:40;;;;;;;17.80;4.20;;;;;;;15.53;45.46;98455.47;5017013;28;20036;-73
2023/04/30 10:11:07;;;;;;;5.22;2.55;;;;;;;16.56;44.29;98608.16;5035191;28;20037;-73
2023/04/30 10:13:34;;;;;;;;;;;;;;;16.79;44.68;98721.06;5017972;28;20032;-73
2023/04/30 10:16:06;;;;;;;11.48;2.58;;;;;;;16.76;45.13;98799.66;5017647;28;19917;-72
2023/04/30 10:18:34;;;;;;;4.05;1.98;;;;;;;17.34;44.12;98796.59;5022087;28;20034;-73
2023/04/30 10:21:04;;;;;;;8.52;2.88;;;;;;;16.34;43.23;98129.75;5018749;28;20033;-70
2023/04/30 10:23:30;;;;;;;4.03;2.05;;;;;;;16.26;43.50;98181.38;5019757;28;20033;-71
2023/04/30 10:25:56;;;;;;;7.30;2.83;;;;;;;15.80;43.26;97839.47;5018057;28;20578;-73
2023/04/30 10:28:22;;;;;;;6.30;2.22;;;;;;;16.81;43.33;98467.50;5024756;28;20506;-73
2023/04/30 10:30:50;;;;;;;5.97;2.42;;;;;;;17.26;42.19;98410.34;5016976;28;20025;-72
2023/04/30 10:33:31;;;;;;;8.65;3.05;;;;;;;17.47;40.79;98063.31;5019946;28;20586;-72
2023/04/30 10:36:01;;;;;;;6.28;2.58;;;;;;;16.78;42.30;98109.66;5018386;28;20049;-72
2023/04/30 10:38:29;;;;;;;7.85;2.90;;;;;;;16.42;43.19;98142.69;5023754;28;20033;-73
2023/04/30 10:40:56;;;;;;;4.70;2.90;;;;;;;16.64;42.82;98172.09;5033099;28;20380;-71
2023/04/30 10:43:26;;;;;;;6.10;2.63;;;;;;;17.70;42.47;98630.44;5018567;28;20044;-73
2023/04/30 10:45:51;;;;;;;7.93;3.10;;;;;;;17.55;40.25;98061.13;5017209;28;20117;-73
2023/04/30 10:48:25;;;;;;;6.85;2.65;;;;;;;17.92;40.88;98317.19;5019468;28;20558;-73
2023/04/30 10:50:54;;;;;;;10.38;3.50;;;;;;;18.04;39.79;98115.25;5032376;28;20464;-72
2023/04/30 10:53:21;;;;;;;5.75;2.45;;;;;;;17.68;40.36;98033.59;5018660;28;20190;-70
2023/04/30 10:56:05;;;;;;;5.57;2.70;;;;;;;17.01;39.34;97542.41;5031827;28;20045;-72
2023/04/30 10:58:38;;;;;;;7.32;2.92;;;;;;;17.55;38.92;97730.16;5019152;28;20071;-72
2023/04/30 11:01:16;;;;;;;7.00;2.70;;;;;;;16.33;40.76;97613.09;5018679;28;20025;-72
2023/04/30 11:04:02;;;;;;;5.82;2.10;;;;;;;15.78;42.00;97591.47;5015382;28;20531;-72
2023/04/30 11:06:48;;;;;;;11.05;2.75;;;;;;;16.72;41.17;97984.91;5017374;28;20025;-72
2023/04/30 11:09:14;;;;;;;7.38;2.53;;;;;;;16.74;40.98;98052.81;5032194;28;20200;-71
2023/04/30 11:11:40;;;;;;;5.63;2.53;;;;;;;16.77;40.37;97804.41;5016100;28;20547;-71
2023/04/30 11:14:05;;;;;;;8.90;2.15;;;;;;;17.08;40.72;98096.22;5018427;28;20041;-72
2023/04/30 11:16:34;;;;;;;6.07;2.33;;;;;;;17.02;40.86;97999.47;5017393;28;20021;-72
2023/04/30 11:19:10;;;;;;;6.35;2.40;;;;;;;16.69;39.90;97691.81;5017897;28;20131;-71
2023/04/30 11:22:04;;;;;;;9.55;2.63;;;;;;;16.73;41.45;98048.47;5019171;28;20029;-71
2023/04/30 11:24:49;;;;;;;9.10;3.20;;;;;;;16.07;40.10;97450.97;5019264;28;20576;-71
2023/04/30 11:27:22;;;;;;;9.38;2.67;;;;;;;16.18;41.22;97797.81;5017371;28;20494;-71
2023/04/30 11:29:49;;;;;;;5.20;2.65;;;;;;;16.61;42.26;98272.31;5015797;28;20022;-71